createdAt,value
2017-01-27T00:00:18.715Z,842.61
2017-01-27T00:00:48.740Z,842.62
2017-01-27T00:01:18.767Z,842.58
2017-01-27T00:01:48.796Z,842.59
2017-01-27T00:02:18.823Z,842.58
2017-01-27T00:02:48.851Z,842.54
2017-01-27T00:03:18.877Z,842.51
2017-01-27T00:03:49.358Z,842.48
2017-01-27T00:04:18.933Z,842.46
2017-01-27T00:04:48.960Z,842.44
2017-01-27T00:05:18.987Z,842.4
2017-01-27T00:05:49.014Z,842.42
2017-01-27T00:06:19.042Z,842.37
2017-01-27T00:06:49.072Z,842.37
2017-01-27T00:07:19.100Z,842.33
2017-01-27T00:07:49.129Z,842.31
2017-01-27T00:08:19.154Z,842.22
2017-01-27T00:08:49.181Z,842.23
2017-01-27T00:09:19.209Z,842.27
2017-01-27T00:09:49.236Z,842.14
2017-01-27T00:10:19.263Z,842.2
2017-01-27T00:10:49.292Z,842.13
2017-01-27T00:11:19.321Z,842.15
2017-01-27T00:11:49.344Z,842.13
2017-01-27T00:12:19.374Z,842.06
2017-01-27T00:12:49.399Z,842.08
2017-01-27T00:13:19.427Z,842.05
2017-01-27T00:13:49.456Z,842.02
2017-01-27T00:14:19.484Z,841.93
2017-01-27T00:14:49.510Z,841.97
2017-01-27T00:15:19.538Z,841.96
2017-01-27T00:15:49.565Z,841.95
2017-01-27T00:16:19.592Z,841.94
2017-01-27T00:16:49.632Z,841.94
2017-01-27T00:17:19.646Z,841.92
2017-01-27T00:17:49.677Z,841.92
2017-01-27T00:18:19.704Z,841.87
2017-01-27T00:18:49.728Z,841.89
2017-01-27T00:19:19.757Z,841.84
2017-01-27T00:19:49.788Z,841.79
2017-01-27T00:20:19.815Z,841.8
2017-01-27T00:20:49.840Z,841.77
2017-01-27T00:21:19.871Z,841.75
2017-01-27T00:21:49.897Z,841.71
2017-01-27T00:22:19.926Z,841.66
2017-01-27T00:22:49.950Z,841.6
2017-01-27T00:23:19.978Z,841.58
2017-01-27T00:23:50.004Z,841.58
2017-01-27T00:24:20.338Z,841.58
2017-01-27T00:24:50.058Z,841.52
2017-01-27T00:25:20.089Z,841.5
2017-01-27T00:25:50.115Z,841.48
2017-01-27T00:26:20.142Z,841.42
2017-01-27T00:26:50.171Z,841.4
2017-01-27T00:27:20.198Z,841.37
2017-01-27T00:27:50.224Z,841.36
2017-01-27T00:28:20.259Z,841.38
2017-01-27T00:28:50.279Z,841.33
2017-01-27T00:29:20.307Z,841.29
2017-01-27T00:29:50.335Z,841.29
2017-01-27T00:30:20.361Z,841.25
2017-01-27T00:30:50.389Z,841.26
2017-01-27T00:31:20.414Z,841.16
2017-01-27T00:31:50.443Z,841.18
2017-01-27T00:32:20.471Z,841.19
2017-01-27T00:32:50.500Z,841.15
2017-01-27T00:33:20.526Z,841.18
2017-01-27T00:33:50.553Z,841.15
2017-01-27T00:34:20.582Z,841.14
2017-01-27T00:34:50.608Z,841.16
2017-01-27T00:35:20.633Z,841.16
2017-01-27T00:35:50.662Z,841.16
2017-01-27T00:36:20.688Z,841.16
2017-01-27T00:36:50.719Z,841.11
2017-01-27T00:37:20.744Z,841.1
2017-01-27T00:37:50.773Z,841.1
2017-01-27T00:38:20.800Z,841.12
2017-01-27T00:38:50.828Z,841.07
2017-01-27T00:39:20.855Z,841.07
2017-01-27T00:39:51.184Z,841.04
2017-01-27T00:40:20.907Z,841.04
2017-01-27T00:40:50.967Z,841
2017-01-27T00:41:20.963Z,840.98
2017-01-27T00:41:50.993Z,840.96
2017-01-27T00:42:21.017Z,840.95
2017-01-27T00:42:51.044Z,840.89
2017-01-27T00:43:21.080Z,840.86
2017-01-27T00:43:51.100Z,840.87
2017-01-27T00:44:21.128Z,840.88
2017-01-27T00:44:51.156Z,840.86
2017-01-27T00:45:21.183Z,840.88
2017-01-27T00:45:51.209Z,840.85
2017-01-27T00:46:21.237Z,840.8
2017-01-27T00:46:51.268Z,840.81
2017-01-27T00:47:21.292Z,840.77
2017-01-27T00:47:51.323Z,840.8
2017-01-27T00:48:21.349Z,840.79
2017-01-27T00:48:51.376Z,840.75
2017-01-27T00:49:21.400Z,840.74
2017-01-27T00:49:51.432Z,840.74
2017-01-27T00:50:21.456Z,840.71
2017-01-27T00:50:51.511Z,840.73
2017-01-27T00:51:21.520Z,840.72
2017-01-27T00:51:51.540Z,840.72
2017-01-27T00:52:21.568Z,840.68
2017-01-27T00:52:51.596Z,840.66
2017-01-27T00:53:21.625Z,840.67
2017-01-27T00:53:51.649Z,840.62
2017-01-27T00:54:21.677Z,840.62
2017-01-27T00:54:51.702Z,840.56
2017-01-27T00:55:21.732Z,840.51
2017-01-27T00:55:51.760Z,840.51
2017-01-27T00:56:21.786Z,840.44
2017-01-27T00:56:51.813Z,840.39
2017-01-27T00:57:21.843Z,840.42
2017-01-27T00:57:51.870Z,840.36
2017-01-27T00:58:21.894Z,840.38
2017-01-27T00:58:51.924Z,840.33
2017-01-27T00:59:21.951Z,840.29
2017-01-27T00:59:51.976Z,840.31
2017-01-27T01:00:22.253Z,840.29
2017-01-27T01:00:52.034Z,840.29
2017-01-27T01:01:22.061Z,840.24
2017-01-27T01:01:52.087Z,840.22
2017-01-27T01:02:22.113Z,840.2
2017-01-27T01:02:52.140Z,840.14
2017-01-27T01:03:22.173Z,840.14
2017-01-27T01:03:52.195Z,840.09
2017-01-27T01:04:22.225Z,840.08
2017-01-27T01:04:52.251Z,840.05
2017-01-27T01:05:22.278Z,839.98
2017-01-27T01:05:52.303Z,839.97
2017-01-27T01:06:22.333Z,839.96
2017-01-27T01:07:22.387Z,839.9
2017-01-27T01:07:52.433Z,839.91
2017-01-27T01:08:22.470Z,839.88
2017-01-27T01:08:52.469Z,839.9
2017-01-27T01:09:22.497Z,839.83
2017-01-27T01:09:52.523Z,839.83
2017-01-27T01:10:22.559Z,839.88
2017-01-27T01:10:52.578Z,839.86
2017-01-27T01:11:22.607Z,839.86
2017-01-27T01:11:52.634Z,839.81
2017-01-27T01:12:22.660Z,839.75
2017-01-27T01:12:52.689Z,839.76
2017-01-27T01:13:22.716Z,839.78
2017-01-27T01:13:52.742Z,839.75
2017-01-27T01:14:22.770Z,839.7
2017-01-27T01:14:52.796Z,839.72
2017-01-27T01:15:22.824Z,839.65
2017-01-27T01:15:53.101Z,839.66
2017-01-27T01:16:22.879Z,839.6
2017-01-27T01:16:52.906Z,839.56
2017-01-27T01:17:22.941Z,839.58
2017-01-27T01:17:52.962Z,839.5
2017-01-27T01:18:22.988Z,839.48
2017-01-27T01:18:53.015Z,839.46
2017-01-27T01:19:23.043Z,839.36
2017-01-27T01:19:53.072Z,839.35
2017-01-27T01:20:23.097Z,839.24
2017-01-27T01:20:53.124Z,839.25
2017-01-27T01:21:23.151Z,839.19
2017-01-27T01:21:53.180Z,839.15
2017-01-27T01:22:23.206Z,839.11
2017-01-27T01:22:53.234Z,839.07
2017-01-27T01:23:23.261Z,839.03
2017-01-27T01:23:53.289Z,839.02
2017-01-27T01:24:23.316Z,838.96
2017-01-27T01:24:53.343Z,838.97
2017-01-27T01:25:23.368Z,838.94
2017-01-27T01:25:53.399Z,838.92
2017-01-27T01:26:23.422Z,838.92
2017-01-27T01:26:53.451Z,838.93
2017-01-27T01:27:23.482Z,838.93
2017-01-27T01:27:53.503Z,838.95
2017-01-27T01:28:23.532Z,838.92
2017-01-27T01:28:53.559Z,838.86
2017-01-27T01:29:23.585Z,838.88
2017-01-27T01:29:53.612Z,838.93
2017-01-27T01:30:23.642Z,838.98
2017-01-27T01:30:53.676Z,839.02
2017-01-27T01:31:23.695Z,839.05
2017-01-27T01:31:53.726Z,839.02
2017-01-27T01:32:23.752Z,839.05
2017-01-27T01:32:53.781Z,839.07
2017-01-27T01:33:23.803Z,839.1
2017-01-27T01:33:53.832Z,839.1
2017-01-27T01:34:23.859Z,839.16
2017-01-27T01:34:53.885Z,839.16
2017-01-27T01:35:23.920Z,839.21
2017-01-27T01:35:53.942Z,839.23
2017-01-27T01:36:24.320Z,839.23
2017-01-27T01:36:54.001Z,839.28
2017-01-27T01:37:24.024Z,839.33
2017-01-27T01:37:54.050Z,839.36
2017-01-27T01:38:24.078Z,839.41
2017-01-27T01:38:54.104Z,839.42
2017-01-27T01:39:24.132Z,839.47
2017-01-27T01:39:54.161Z,839.51
2017-01-27T01:40:24.188Z,839.51
2017-01-27T01:40:54.213Z,839.58
2017-01-27T01:41:24.242Z,839.61
2017-01-27T01:41:54.271Z,839.62
2017-01-27T01:42:24.296Z,839.69
2017-01-27T01:42:54.324Z,839.65
2017-01-27T01:43:24.352Z,839.71
2017-01-27T01:43:54.379Z,839.67
2017-01-27T01:44:24.407Z,839.72
2017-01-27T01:44:54.434Z,839.67
2017-01-27T01:45:24.461Z,839.67
2017-01-27T01:45:54.488Z,839.68
2017-01-27T01:46:24.514Z,839.74
2017-01-27T01:46:54.542Z,839.75
2017-01-27T01:47:24.569Z,839.72
2017-01-27T01:47:54.598Z,839.75
2017-01-27T01:48:24.624Z,839.7
2017-01-27T01:48:54.650Z,839.71
2017-01-27T01:49:24.678Z,839.75
2017-01-27T01:49:54.710Z,839.81
2017-01-27T01:50:24.733Z,839.75
2017-01-27T01:50:54.762Z,839.71
2017-01-27T01:51:24.786Z,839.74
2017-01-27T01:51:54.821Z,839.76
2017-01-27T01:52:24.843Z,839.73
2017-01-27T01:52:54.870Z,839.72
2017-01-27T01:53:24.896Z,839.71
2017-01-27T01:53:54.924Z,839.67
2017-01-27T01:54:24.953Z,839.64
2017-01-27T01:54:54.981Z,839.57
2017-01-27T01:55:25.005Z,839.59
2017-01-27T01:55:55.030Z,839.52
2017-01-27T01:56:25.061Z,839.46
2017-01-27T01:56:55.388Z,839.32
2017-01-27T01:57:25.114Z,839.34
2017-01-27T01:57:55.144Z,839.27
2017-01-27T01:58:25.173Z,839.17
2017-01-27T01:58:55.198Z,839.12
2017-01-27T01:59:25.230Z,839.06
2017-01-27T01:59:55.251Z,839.02
2017-01-27T02:00:25.281Z,838.96
2017-01-27T02:00:55.311Z,838.95
2017-01-27T02:01:25.335Z,838.94
2017-01-27T02:01:55.364Z,838.91
2017-01-27T02:02:25.388Z,838.84
2017-01-27T02:02:55.415Z,838.77
2017-01-27T02:03:25.444Z,838.73
2017-01-27T02:03:55.473Z,838.66
2017-01-27T02:04:25.498Z,838.64
2017-01-27T02:04:55.523Z,838.54
2017-01-27T02:05:25.551Z,838.48
2017-01-27T02:05:55.580Z,838.49
2017-01-27T02:06:25.607Z,838.47
2017-01-27T02:06:55.632Z,838.47
2017-01-27T02:07:25.660Z,838.46
2017-01-27T02:07:55.698Z,838.47
2017-01-27T02:08:25.716Z,838.48
2017-01-27T02:08:55.743Z,838.43
2017-01-27T02:09:25.771Z,838.49
2017-01-27T02:09:55.798Z,838.49
2017-01-27T02:10:25.826Z,838.45
2017-01-27T02:10:55.850Z,838.47
2017-01-27T02:11:25.880Z,838.5
2017-01-27T02:11:55.904Z,838.48
2017-01-27T02:12:26.182Z,838.48
2017-01-27T02:12:55.958Z,838.48
2017-01-27T02:13:25.987Z,838.48
2017-01-27T02:13:56.012Z,838.48
2017-01-27T02:14:26.040Z,838.45
2017-01-27T02:14:56.067Z,838.43
2017-01-27T02:15:26.095Z,838.46
2017-01-27T02:15:56.123Z,838.46
2017-01-27T02:16:26.151Z,838.39
2017-01-27T02:16:56.176Z,838.38
2017-01-27T02:17:26.203Z,838.38
2017-01-27T02:17:56.232Z,838.36
2017-01-27T02:18:26.258Z,838.36
2017-01-27T02:18:56.287Z,838.27
2017-01-27T02:19:26.311Z,838.24
2017-01-27T02:19:56.340Z,838.23
2017-01-27T02:20:26.366Z,838.22
2017-01-27T02:20:56.394Z,838.2
2017-01-27T02:21:26.423Z,838.13
2017-01-27T02:21:56.450Z,838.13
2017-01-27T02:22:26.477Z,838.1
2017-01-27T02:22:56.506Z,838.03
2017-01-27T02:23:26.529Z,838.01
2017-01-27T02:23:56.559Z,837.95
2017-01-27T02:24:26.584Z,837.96
2017-01-27T02:24:56.614Z,837.91
2017-01-27T02:25:26.639Z,837.82
2017-01-27T02:25:56.665Z,837.8
2017-01-27T02:26:26.692Z,837.75
2017-01-27T02:26:56.719Z,837.69
2017-01-27T02:27:26.747Z,837.66
2017-01-27T02:27:57.074Z,837.56
2017-01-27T02:28:26.801Z,837.5
2017-01-27T02:28:56.829Z,837.43
2017-01-27T02:29:26.856Z,837.39
2017-01-27T02:29:56.883Z,837.34
2017-01-27T02:30:26.911Z,837.26
2017-01-27T02:30:56.939Z,837.18
2017-01-27T02:31:26.965Z,837.09
2017-01-27T02:31:56.991Z,837.08
2017-01-27T02:32:27.019Z,837.04
2017-01-27T02:32:57.044Z,837
2017-01-27T02:33:27.071Z,836.96
2017-01-27T02:33:57.097Z,836.87
2017-01-27T02:34:27.123Z,836.85
2017-01-27T02:34:57.152Z,836.81
2017-01-27T02:35:27.184Z,836.79
2017-01-27T02:35:57.206Z,836.82
2017-01-27T02:36:27.231Z,836.7
2017-01-27T02:36:57.262Z,836.7
2017-01-27T02:37:27.286Z,836.71
2017-01-27T02:37:57.314Z,836.67
2017-01-27T02:38:27.340Z,836.66
2017-01-27T02:38:57.369Z,836.67
2017-01-27T02:39:27.393Z,836.65
2017-01-27T02:39:57.421Z,836.63
2017-01-27T02:40:27.449Z,836.63
2017-01-27T02:40:57.476Z,836.53
2017-01-27T02:41:27.506Z,836.55
2017-01-27T02:41:57.532Z,836.55
2017-01-27T02:42:27.557Z,836.53
2017-01-27T02:42:57.582Z,836.55
2017-01-27T02:43:27.614Z,836.6
2017-01-27T02:43:57.638Z,836.59
2017-01-27T02:44:27.669Z,836.55
2017-01-27T02:44:57.690Z,836.59
2017-01-27T02:45:27.724Z,836.6
2017-01-27T02:45:57.747Z,836.62
2017-01-27T02:46:27.776Z,836.61
2017-01-27T02:46:57.802Z,836.61
2017-01-27T02:47:27.828Z,836.6
2017-01-27T02:47:57.855Z,836.64
2017-01-27T02:48:28.181Z,836.63
2017-01-27T02:48:57.907Z,836.64
2017-01-27T02:49:27.936Z,836.66
2017-01-27T02:49:57.962Z,836.67
2017-01-27T02:50:27.992Z,836.63
2017-01-27T02:50:58.019Z,836.65
2017-01-27T02:51:28.046Z,836.68
2017-01-27T02:51:58.077Z,836.71
2017-01-27T02:52:28.101Z,836.72
2017-01-27T02:52:58.126Z,836.77
2017-01-27T02:53:28.158Z,836.73
2017-01-27T02:53:58.180Z,836.71
2017-01-27T02:54:28.208Z,836.76
2017-01-27T02:54:58.234Z,836.73
2017-01-27T02:55:28.263Z,836.75
2017-01-27T02:55:58.289Z,836.82
2017-01-27T02:56:28.317Z,836.85
2017-01-27T02:56:58.343Z,836.79
2017-01-27T02:57:28.371Z,836.85
2017-01-27T02:57:58.401Z,836.84
2017-01-27T02:58:28.423Z,836.87
2017-01-27T02:58:58.452Z,836.86
2017-01-27T02:59:28.478Z,836.8
2017-01-27T02:59:58.514Z,836.84
2017-01-27T03:00:28.533Z,836.85
2017-01-27T03:00:58.560Z,836.91
2017-01-27T03:01:28.585Z,836.91
2017-01-27T03:01:58.614Z,836.96
2017-01-27T03:02:28.638Z,836.95
2017-01-27T03:02:58.667Z,836.95
2017-01-27T03:03:28.693Z,836.99
2017-01-27T03:03:58.721Z,837.02
2017-01-27T03:04:28.748Z,837.06
2017-01-27T03:04:58.775Z,837.05
2017-01-27T03:05:28.803Z,837.08
2017-01-27T03:05:58.833Z,837.08
2017-01-27T03:06:28.855Z,837.13
2017-01-27T03:06:58.886Z,837.17
2017-01-27T03:07:28.912Z,837.2
2017-01-27T03:07:58.938Z,837.24
2017-01-27T03:08:28.964Z,837.23
2017-01-27T03:08:59.342Z,837.25
2017-01-27T03:09:29.017Z,837.25
2017-01-27T03:09:59.046Z,837.21
2017-01-27T03:10:29.076Z,837.24
2017-01-27T03:10:59.101Z,837.22
2017-01-27T03:11:29.128Z,837.17
2017-01-27T03:11:59.156Z,837.2
2017-01-27T03:12:29.185Z,837.21
2017-01-27T03:12:59.211Z,837.12
2017-01-27T03:13:29.235Z,837.17
2017-01-27T03:13:59.264Z,837.19
2017-01-27T03:14:29.294Z,837.18
2017-01-27T03:14:59.319Z,837.2
2017-01-27T03:15:29.345Z,837.23
2017-01-27T03:15:59.371Z,837.25
2017-01-27T03:16:29.398Z,837.28
2017-01-27T03:16:59.426Z,837.35
2017-01-27T03:17:29.453Z,837.38
2017-01-27T03:17:59.480Z,837.41
2017-01-27T03:18:29.511Z,837.46
2017-01-27T03:18:59.533Z,837.5
2017-01-27T03:19:29.564Z,837.52
2017-01-27T03:19:59.587Z,837.57
2017-01-27T03:20:29.616Z,837.57
2017-01-27T03:20:59.644Z,837.69
2017-01-27T03:21:29.668Z,837.77
2017-01-27T03:21:59.696Z,837.89
2017-01-27T03:22:29.724Z,837.95
2017-01-27T03:22:59.753Z,838.09
2017-01-27T03:23:29.778Z,838.19
2017-01-27T03:23:59.808Z,838.24
2017-01-27T03:24:30.132Z,838.35
2017-01-27T03:24:59.859Z,838.4
2017-01-27T03:25:29.889Z,838.39
2017-01-27T03:25:59.915Z,838.46
2017-01-27T03:26:29.942Z,838.54
2017-01-27T03:26:59.969Z,838.54
2017-01-27T03:27:29.995Z,838.61
2017-01-27T03:28:00.034Z,838.62
2017-01-27T03:28:30.052Z,838.57
2017-01-27T03:29:00.079Z,838.61
2017-01-27T03:29:30.104Z,838.58
2017-01-27T03:30:00.130Z,838.58
2017-01-27T03:30:30.158Z,838.5
2017-01-27T03:31:00.185Z,838.49
2017-01-27T03:31:30.212Z,838.44
2017-01-27T03:32:00.243Z,838.4
2017-01-27T03:32:30.265Z,838.35
2017-01-27T03:33:00.295Z,838.25
2017-01-27T03:33:30.322Z,838.28
2017-01-27T03:34:00.351Z,838.19
2017-01-27T03:34:30.378Z,838.1
2017-01-27T03:35:00.404Z,838.07
2017-01-27T03:35:30.430Z,838.02
2017-01-27T03:36:00.459Z,837.95
2017-01-27T03:36:30.486Z,837.87
2017-01-27T03:37:00.512Z,837.87
2017-01-27T03:37:30.540Z,837.86
2017-01-27T03:38:00.571Z,837.82
2017-01-27T03:38:30.595Z,837.79
2017-01-27T03:39:00.621Z,837.77
2017-01-27T03:39:30.651Z,837.75
2017-01-27T03:40:00.677Z,837.78
2017-01-27T03:40:30.699Z,837.74
2017-01-27T03:41:00.735Z,837.73
2017-01-27T03:41:30.755Z,837.74
2017-01-27T03:42:00.785Z,837.71
2017-01-27T03:42:30.812Z,837.71
2017-01-27T03:43:00.836Z,837.71
2017-01-27T03:43:30.866Z,837.71
2017-01-27T03:44:00.893Z,837.73
2017-01-27T03:44:30.919Z,837.71
2017-01-27T03:45:01.197Z,837.68
2017-01-27T03:45:30.976Z,837.65
2017-01-27T03:46:01.003Z,837.64
2017-01-27T03:46:31.030Z,837.65
2017-01-27T03:47:01.056Z,837.67
2017-01-27T03:47:31.084Z,837.67
2017-01-27T03:48:01.112Z,837.66
2017-01-27T03:48:31.136Z,837.66
2017-01-27T03:49:01.166Z,837.62
2017-01-27T03:49:31.192Z,837.6
2017-01-27T03:50:01.223Z,837.61
2017-01-27T03:50:31.243Z,837.62
2017-01-27T03:51:01.273Z,837.61
2017-01-27T03:51:31.301Z,837.58
2017-01-27T03:52:01.327Z,837.56
2017-01-27T03:52:31.355Z,837.54
2017-01-27T03:53:01.382Z,837.58
2017-01-27T03:53:31.408Z,837.52
2017-01-27T03:54:01.436Z,837.48
2017-01-27T03:54:31.468Z,837.49
2017-01-27T03:55:01.489Z,837.46
2017-01-27T03:55:31.517Z,837.45
2017-01-27T03:56:01.544Z,837.53
2017-01-27T03:56:31.574Z,837.49
2017-01-27T03:57:01.599Z,837.5
2017-01-27T03:57:31.626Z,837.49
2017-01-27T03:58:01.754Z,837.51
2017-01-27T03:58:31.682Z,837.51
2017-01-27T03:59:01.709Z,837.55
2017-01-27T03:59:31.734Z,837.57
2017-01-27T04:00:01.765Z,837.57
2017-01-27T04:00:31.789Z,837.62
2017-01-27T04:01:01.815Z,837.62
2017-01-27T04:01:31.843Z,837.59
2017-01-27T04:02:01.870Z,837.63
2017-01-27T04:02:31.897Z,837.57
2017-01-27T04:03:02.126Z,837.55
2017-01-27T04:03:31.951Z,837.56
2017-01-27T04:04:01.983Z,837.48
2017-01-27T04:04:32.031Z,837.49
2017-01-27T04:05:02.036Z,837.45
2017-01-27T04:05:32.061Z,837.36
2017-01-27T04:06:02.240Z,837.31
2017-01-27T04:06:32.116Z,837.25
2017-01-27T04:07:02.143Z,837.23
2017-01-27T04:07:32.167Z,837.17
2017-01-27T04:08:02.446Z,837.12
2017-01-27T04:08:32.223Z,837.04
2017-01-27T04:09:02.251Z,836.93
2017-01-27T04:09:32.280Z,836.89
2017-01-27T04:10:02.304Z,836.81
2017-01-27T04:10:32.583Z,836.71
2017-01-27T04:11:02.361Z,836.6
2017-01-27T04:11:32.386Z,836.47
2017-01-27T04:12:02.410Z,836.41
2017-01-27T04:12:32.440Z,836.27
2017-01-27T04:13:02.464Z,836.14
2017-01-27T04:13:32.493Z,836.03
2017-01-27T04:14:02.522Z,835.93
2017-01-27T04:14:32.547Z,835.81
2017-01-27T04:15:02.573Z,835.7
2017-01-27T04:15:32.603Z,835.62
2017-01-27T04:16:02.630Z,835.53
2017-01-27T04:16:32.656Z,835.44
2017-01-27T04:17:02.686Z,835.4
2017-01-27T04:17:32.708Z,835.33
2017-01-27T04:18:02.735Z,835.27
2017-01-27T04:18:32.790Z,835.23
2017-01-27T04:19:02.791Z,835.16
2017-01-27T04:19:32.817Z,835.19
2017-01-27T04:20:02.844Z,835.14
2017-01-27T04:20:32.871Z,835.15
2017-01-27T04:21:02.898Z,835.15
2017-01-27T04:21:32.926Z,835.14
2017-01-27T04:22:02.953Z,835.15
2017-01-27T04:22:32.979Z,835.12
2017-01-27T04:23:03.008Z,835.13
2017-01-27T04:23:33.036Z,835.13
2017-01-27T04:24:03.060Z,835.18
2017-01-27T04:24:33.087Z,835.15
2017-01-27T04:25:03.113Z,835.19
2017-01-27T04:25:33.140Z,835.2
2017-01-27T04:26:03.169Z,835.22
2017-01-27T04:26:33.196Z,835.21
2017-01-27T04:27:03.220Z,835.27
2017-01-27T04:27:33.247Z,835.27
2017-01-27T04:28:03.278Z,835.27
2017-01-27T04:28:33.302Z,835.29
2017-01-27T04:29:03.328Z,835.24
2017-01-27T04:29:33.355Z,835.36
2017-01-27T04:30:03.385Z,835.38
2017-01-27T04:30:33.406Z,835.4
2017-01-27T04:31:03.441Z,835.42
2017-01-27T04:31:33.461Z,835.45
2017-01-27T04:32:03.491Z,835.5
2017-01-27T04:32:33.519Z,835.53
2017-01-27T04:33:03.544Z,835.6
2017-01-27T04:33:33.569Z,835.66
2017-01-27T04:34:03.598Z,835.65
2017-01-27T04:34:33.626Z,835.7
2017-01-27T04:35:03.665Z,835.69
2017-01-27T04:35:33.677Z,835.72
2017-01-27T04:36:03.958Z,835.75
2017-01-27T04:36:33.734Z,835.74
2017-01-27T04:37:03.758Z,835.77
2017-01-27T04:37:33.785Z,835.7
2017-01-27T04:38:03.814Z,835.71
2017-01-27T04:38:33.839Z,835.68
2017-01-27T04:39:03.867Z,835.63
2017-01-27T04:39:33.894Z,835.63
2017-01-27T04:40:03.924Z,835.58
2017-01-27T04:40:33.945Z,835.54
2017-01-27T04:41:03.974Z,835.51
2017-01-27T04:41:34.003Z,835.48
2017-01-27T04:42:04.030Z,835.45
2017-01-27T04:42:34.057Z,835.39
2017-01-27T04:43:04.084Z,835.36
2017-01-27T04:43:34.110Z,835.37
2017-01-27T04:44:04.138Z,835.29
2017-01-27T04:44:34.165Z,835.29
2017-01-27T04:45:04.192Z,835.18
2017-01-27T04:45:34.217Z,835.17
2017-01-27T04:46:04.242Z,835.14
2017-01-27T04:46:34.274Z,835.1
2017-01-27T04:47:04.296Z,835.06
2017-01-27T04:47:34.326Z,835.04
2017-01-27T04:48:04.352Z,834.96
2017-01-27T04:48:34.380Z,834.95
2017-01-27T04:49:04.410Z,834.9
2017-01-27T04:49:34.435Z,834.84
2017-01-27T04:50:04.459Z,834.77
2017-01-27T04:50:34.487Z,834.78
2017-01-27T04:51:04.513Z,834.74
2017-01-27T04:51:34.541Z,834.69
2017-01-27T04:52:04.569Z,834.65
2017-01-27T04:52:34.593Z,834.6
2017-01-27T04:53:04.622Z,834.58
2017-01-27T04:53:34.649Z,834.53
2017-01-27T04:54:04.676Z,834.46
2017-01-27T04:54:34.706Z,834.4
2017-01-27T04:55:04.731Z,834.34
2017-01-27T04:55:34.755Z,834.36
2017-01-27T04:56:04.783Z,834.29
2017-01-27T04:56:35.190Z,834.24
2017-01-27T04:57:04.836Z,834.16
2017-01-27T04:57:34.865Z,834.13
2017-01-27T04:58:04.889Z,834.08
2017-01-27T04:58:34.918Z,834.02
2017-01-27T04:59:04.952Z,834
2017-01-27T04:59:34.970Z,833.99
2017-01-27T05:00:04.995Z,833.94
2017-01-27T05:00:35.025Z,833.91
2017-01-27T05:01:05.051Z,833.86
2017-01-27T05:01:35.078Z,833.78
2017-01-27T05:02:05.104Z,833.83
2017-01-27T05:02:35.132Z,833.79
2017-01-27T05:03:05.159Z,833.79
2017-01-27T05:03:35.187Z,833.73
2017-01-27T05:04:05.213Z,833.75
2017-01-27T05:04:35.240Z,833.75
2017-01-27T05:05:05.265Z,833.79
2017-01-27T05:05:35.299Z,833.77
2017-01-27T05:06:05.318Z,833.82
2017-01-27T05:06:35.346Z,833.83
2017-01-27T05:07:05.375Z,833.88
2017-01-27T05:07:35.398Z,833.9
2017-01-27T05:08:05.429Z,833.97
2017-01-27T05:08:35.451Z,834.03
2017-01-27T05:09:05.482Z,834.07
2017-01-27T05:09:35.508Z,834.16
2017-01-27T05:10:05.536Z,834.25
2017-01-27T05:10:35.563Z,834.3
2017-01-27T05:11:05.593Z,834.4
2017-01-27T05:11:35.616Z,834.41
2017-01-27T05:12:05.643Z,834.58
2017-01-27T05:12:35.668Z,834.62
2017-01-27T05:13:05.697Z,834.73
2017-01-27T05:13:35.726Z,834.79
2017-01-27T05:14:05.751Z,834.87
2017-01-27T05:14:35.779Z,834.93
2017-01-27T05:15:05.808Z,835
2017-01-27T05:15:35.830Z,835.1
2017-01-27T05:16:05.858Z,835.12
2017-01-27T05:16:35.887Z,835.25
2017-01-27T05:17:06.162Z,835.31
2017-01-27T05:17:35.936Z,835.34
2017-01-27T05:18:05.964Z,835.43
2017-01-27T05:18:35.991Z,835.47
2017-01-27T05:19:06.019Z,835.53
2017-01-27T05:19:36.046Z,835.56
2017-01-27T05:20:06.073Z,835.52
2017-01-27T05:20:36.101Z,835.53
2017-01-27T05:21:06.126Z,835.52
2017-01-27T05:21:36.162Z,835.52
2017-01-27T05:22:06.183Z,835.52
2017-01-27T05:22:36.207Z,835.49
2017-01-27T05:23:06.234Z,835.47
2017-01-27T05:23:36.264Z,835.48
2017-01-27T05:24:06.288Z,835.5
2017-01-27T05:24:36.316Z,835.47
2017-01-27T05:25:06.345Z,835.48
2017-01-27T05:25:36.371Z,835.53
2017-01-27T05:26:06.397Z,835.51
2017-01-27T05:26:36.426Z,835.51
2017-01-27T05:27:06.452Z,835.53
2017-01-27T05:27:36.477Z,835.51
2017-01-27T05:28:06.505Z,835.5
2017-01-27T05:28:36.532Z,835.53
2017-01-27T05:29:06.557Z,835.53
2017-01-27T05:29:36.588Z,835.53
2017-01-27T05:30:06.614Z,835.51
2017-01-27T05:30:36.643Z,835.55
2017-01-27T05:31:06.665Z,835.54
2017-01-27T05:31:36.699Z,835.47
2017-01-27T05:32:06.721Z,835.49
2017-01-27T05:32:37.001Z,835.48
2017-01-27T05:33:06.773Z,835.47
2017-01-27T05:33:36.807Z,835.43
2017-01-27T05:34:06.829Z,835.47
2017-01-27T05:34:36.854Z,835.49
2017-01-27T05:35:06.881Z,835.49
2017-01-27T05:35:36.910Z,835.6
2017-01-27T05:36:06.938Z,835.64
2017-01-27T05:36:36.964Z,835.59
2017-01-27T05:37:06.992Z,835.63
2017-01-27T05:37:37.017Z,835.73
2017-01-27T05:38:07.047Z,835.74
2017-01-27T05:38:37.073Z,835.79
2017-01-27T05:39:07.099Z,835.83
2017-01-27T05:39:37.127Z,835.87
2017-01-27T05:40:07.152Z,835.78
2017-01-27T05:40:37.179Z,835.88
2017-01-27T05:41:07.207Z,835.91
2017-01-27T05:41:37.235Z,835.86
2017-01-27T05:42:07.262Z,835.9
2017-01-27T05:42:37.287Z,835.88
2017-01-27T05:43:07.316Z,835.92
2017-01-27T05:43:37.341Z,835.92
2017-01-27T05:44:07.370Z,835.96
2017-01-27T05:44:37.394Z,835.95
2017-01-27T05:45:07.420Z,835.98
2017-01-27T05:45:37.449Z,836.01
2017-01-27T05:46:07.481Z,836.04
2017-01-27T05:46:37.508Z,836.05
2017-01-27T05:47:07.531Z,836.11
2017-01-27T05:47:37.557Z,836.11
2017-01-27T05:48:07.584Z,836.16
2017-01-27T05:48:37.608Z,836.21
2017-01-27T05:49:07.637Z,836.24
2017-01-27T05:49:37.676Z,836.3
2017-01-27T05:50:07.704Z,836.3
2017-01-27T05:50:37.726Z,836.31
2017-01-27T05:51:07.748Z,836.36
2017-01-27T05:51:37.776Z,836.39
2017-01-27T05:52:07.801Z,836.42
2017-01-27T05:52:37.836Z,836.43
2017-01-27T05:53:08.154Z,836.51
2017-01-27T05:53:37.882Z,836.56
2017-01-27T05:54:07.911Z,836.61
2017-01-27T05:54:37.934Z,836.61
2017-01-27T05:55:07.965Z,836.63
2017-01-27T05:55:37.991Z,836.67
2017-01-27T05:56:08.019Z,836.63
2017-01-27T05:56:38.047Z,836.59
2017-01-27T05:57:08.072Z,836.62
2017-01-27T05:57:38.098Z,836.54
2017-01-27T05:58:08.129Z,836.54
2017-01-27T05:58:38.154Z,836.48
2017-01-27T05:59:08.179Z,836.47
2017-01-27T05:59:38.207Z,836.43
2017-01-27T06:00:08.235Z,836.45
2017-01-27T06:00:38.262Z,836.37
2017-01-27T06:01:08.283Z,836.36
2017-01-27T06:01:38.316Z,836.34
2017-01-27T06:02:08.343Z,836.3
2017-01-27T06:02:38.370Z,836.23
2017-01-27T06:03:08.396Z,836.18
2017-01-27T06:03:38.430Z,836.11
2017-01-27T06:04:08.466Z,836.05
2017-01-27T06:04:38.476Z,836.02
2017-01-27T06:05:08.503Z,835.9
2017-01-27T06:05:38.529Z,835.84
2017-01-27T06:06:08.558Z,835.85
2017-01-27T06:06:38.586Z,835.76
2017-01-27T06:07:08.613Z,835.7
2017-01-27T06:07:38.641Z,835.57
2017-01-27T06:08:08.665Z,835.49
2017-01-27T06:08:38.695Z,835.35
2017-01-27T06:09:08.719Z,835.22
2017-01-27T06:09:38.748Z,835.13
2017-01-27T06:10:08.772Z,835.03
2017-01-27T06:10:38.799Z,834.97
2017-01-27T06:11:08.827Z,834.81
2017-01-27T06:11:38.856Z,834.77
2017-01-27T06:12:08.885Z,834.71
2017-01-27T06:12:38.907Z,834.62
2017-01-27T06:13:08.935Z,834.65
2017-01-27T06:13:39.261Z,834.59
2017-01-27T06:14:08.987Z,834.56
2017-01-27T06:14:39.014Z,834.51
2017-01-27T06:15:09.042Z,834.44
2017-01-27T06:15:39.068Z,834.39
2017-01-27T06:16:09.094Z,834.33